sensor_id;sensor_type;location;lat;lon;timestamp;temperature;humidity
74325;DHT22;62741;51.948;7.152;2022-08-04T11:16:04;36.70;42.90
74325;DHT22;62741;51.948;7.152;2022-08-04T11:18:43;38.10;40.00
74325;DHT22;62741;51.948;7.152;2022-08-04T11:21:19;39.60;37.60
74325;DHT22;62741;51.948;7.152;2022-08-04T11:23:58;41.00;36.70
74325;DHT22;62741;51.948;7.152;2022-08-04T11:26:36;42.10;35.20
74325;DHT22;62741;51.948;7.152;2022-08-04T11:29:15;43.20;34.00
74325;DHT22;62741;51.948;7.152;2022-08-04T11:31:50;44.00;32.40
74325;DHT22;62741;51.948;7.152;2022-08-04T11:34:20;44.50;31.50
74325;DHT22;62741;51.948;7.152;2022-08-04T11:36:54;44.90;31.10
74325;DHT22;62741;51.948;7.152;2022-08-04T11:39:31;45.30;30.50
74325;DHT22;62741;51.948;7.152;2022-08-04T11:42:05;45.60;30.20
74325;DHT22;62741;51.948;7.152;2022-08-04T11:44:46;46.00;29.30
74325;DHT22;62741;51.948;7.152;2022-08-04T11:47:24;46.20;28.60
74325;DHT22;62741;51.948;7.152;2022-08-04T11:49:59;46.20;28.10
74325;DHT22;62741;51.948;7.152;2022-08-04T11:54:10;45.90;30.10
74325;DHT22;62741;51.948;7.152;2022-08-04T11:56:38;45.50;30.40
74325;DHT22;62741;51.948;7.152;2022-08-04T11:59:06;44.80;30.90
74325;DHT22;62741;51.948;7.152;2022-08-04T12:01:37;44.00;31.40
74325;DHT22;62741;51.948;7.152;2022-08-04T12:04:21;43.10;32.10
74325;DHT22;62741;51.948;7.152;2022-08-04T12:06:55;42.30;32.90
74325;DHT22;62741;51.948;7.152;2022-08-04T12:09:35;41.40;33.60
74325;DHT22;62741;51.948;7.152;2022-08-04T12:12:14;40.60;34.40
74325;DHT22;62741;51.948;7.152;2022-08-04T12:14:53;40.00;35.20
74325;DHT22;62741;51.948;7.152;2022-08-04T12:17:28;39.30;36.00
74325;DHT22;62741;51.948;7.152;2022-08-04T12:20:04;38.70;36.70
74325;DHT22;62741;51.948;7.152;2022-08-04T12:22:36;38.20;37.30
74325;DHT22;62741;51.948;7.152;2022-08-04T12:25:14;37.70;38.00
74325;DHT22;62741;51.948;7.152;2022-08-04T12:27:48;37.20;38.60
74325;DHT22;62741;51.948;7.152;2022-08-04T12:30:21;36.80;39.30
74325;DHT22;62741;51.948;7.152;2022-08-04T12:32:54;36.40;39.70
74325;DHT22;62741;51.948;7.152;2022-08-04T12:35:30;36.10;40.20
74325;DHT22;62741;51.948;7.152;2022-08-04T12:38:03;35.80;40.70
74325;DHT22;62741;51.948;7.152;2022-08-04T12:40:38;35.50;41.20
74325;DHT22;62741;51.948;7.152;2022-08-04T12:43:14;35.30;41.60
74325;DHT22;62741;51.948;7.152;2022-08-04T12:45:49;35.10;42.10
74325;DHT22;62741;51.948;7.152;2022-08-04T12:48:20;34.90;42.50
74325;DHT22;62741;51.948;7.152;2022-08-04T12:50:51;34.60;42.80
74325;DHT22;62741;51.948;7.152;2022-08-04T12:53:22;34.50;43.10
74325;DHT22;62741;51.948;7.152;2022-08-04T12:55:55;34.40;43.50
74325;DHT22;62741;51.948;7.152;2022-08-04T12:58:24;34.20;43.70
74325;DHT22;62741;51.948;7.152;2022-08-04T13:00:57;34.10;44.00
74325;DHT22;62741;51.948;7.152;2022-08-04T13:03:29;34.00;44.30
74325;DHT22;62741;51.948;7.152;2022-08-04T13:06:05;33.80;44.40
74325;DHT22;62741;51.948;7.152;2022-08-04T13:08:36;33.70;44.60
74325;DHT22;62741;51.948;7.152;2022-08-04T13:11:07;33.70;44.90
74325;DHT22;62741;51.948;7.152;2022-08-04T13:13:38;33.60;45.10
74325;DHT22;62741;51.948;7.152;2022-08-04T13:16:07;33.50;45.20
74325;DHT22;62741;51.948;7.152;2022-08-04T13:18:37;33.50;45.40
74325;DHT22;62741;51.948;7.152;2022-08-04T13:21:10;33.40;45.50
74325;DHT22;62741;51.948;7.152;2022-08-04T13:23:40;33.40;45.70
74325;DHT22;62741;51.948;7.152;2022-08-04T13:26:13;33.30;45.70
74325;DHT22;62741;51.948;7.152;2022-08-04T13:28:43;33.30;45.80
74325;DHT22;62741;51.948;7.152;2022-08-04T13:31:14;33.30;46.00
74325;DHT22;62741;51.948;7.152;2022-08-04T13:33:46;33.20;46.10
74325;DHT22;62741;51.948;7.152;2022-08-04T13:36:16;33.20;46.20
74325;DHT22;62741;51.948;7.152;2022-08-04T13:38:48;33.20;46.30
74325;DHT22;62741;51.948;7.152;2022-08-04T13:41:19;33.10;46.30
74325;DHT22;62741;51.948;7.152;2022-08-04T13:43:49;33.10;46.40
74325;DHT22;62741;51.948;7.152;2022-08-04T13:46:26;33.10;46.50
74325;DHT22;62741;51.948;7.152;2022-08-04T13:48:56;33.10;46.50
74325;DHT22;62741;51.948;7.152;2022-08-04T13:51:24;33.10;46.60
74325;DHT22;62741;51.948;7.152;2022-08-04T13:53:55;33.10;46.70
74325;DHT22;62741;51.948;7.152;2022-08-04T13:56:29;33.10;46.80
74325;DHT22;62741;51.948;7.152;2022-08-04T13:58:59;33.10;46.80
74325;DHT22;62741;51.948;7.152;2022-08-04T14:01:29;33.10;46.80
74325;DHT22;62741;51.948;7.152;2022-08-04T14:04:02;33.10;46.90
74325;DHT22;62741;51.948;7.152;2022-08-04T14:06:44;33.00;46.80
74325;DHT22;62741;51.948;7.152;2022-08-04T14:09:16;33.00;46.90
74325;DHT22;62741;51.948;7.152;2022-08-04T14:11:47;33.10;47.10
74325;DHT22;62741;51.948;7.152;2022-08-04T14:14:18;33.10;47.00
74325;DHT22;62741;51.948;7.152;2022-08-04T14:16:55;33.10;47.10
74325;DHT22;62741;51.948;7.152;2022-08-04T14:19:25;33.00;47.10
74325;DHT22;62741;51.948;7.152;2022-08-04T14:21:53;33.10;47.00
74325;DHT22;62741;51.948;7.152;2022-08-04T14:24:24;33.10;47.10
74325;DHT22;62741;51.948;7.152;2022-08-04T14:26:58;33.10;47.10
74325;DHT22;62741;51.948;7.152;2022-08-04T14:29:25;33.10;47.10
74325;DHT22;62741;51.948;7.152;2022-08-04T14:32:04;33.10;47.10
74325;DHT22;62741;51.948;7.152;2022-08-04T14:34:38;33.10;47.20
74325;DHT22;62741;51.948;7.152;2022-08-04T14:37:07;33.10;47.20
74325;DHT22;62741;51.948;7.152;2022-08-04T14:39:37;33.10;47.20
74325;DHT22;62741;51.948;7.152;2022-08-04T14:42:07;33.10;47.20
74325;DHT22;62741;51.948;7.152;2022-08-04T14:44:52;33.10;47.20
74325;DHT22;62741;51.948;7.152;2022-08-04T14:47:37;33.10;47.30
74325;DHT22;62741;51.948;7.152;2022-08-04T14:50:06;33.10;47.30
74325;DHT22;62741;51.948;7.152;2022-08-04T14:52:34;33.10;47.50
74325;DHT22;62741;51.948;7.152;2022-08-04T14:55:19;33.10;47.80
74325;DHT22;62741;51.948;7.152;2022-08-04T14:57:49;33.10;47.50
74325;DHT22;62741;51.948;7.152;2022-08-04T15:00:24;33.20;47.50
74325;DHT22;62741;51.948;7.152;2022-08-04T15:02:53;33.20;47.40
74325;DHT22;62741;51.948;7.152;2022-08-04T15:05:27;33.20;48.20
74325;DHT22;62741;51.948;7.152;2022-08-04T15:07:55;33.20;47.50
74325;DHT22;62741;51.948;7.152;2022-08-04T15:10:22;33.20;47.50
74325;DHT22;62741;51.948;7.152;2022-08-04T15:12:51;33.20;47.60
74325;DHT22;62741;51.948;7.152;2022-08-04T15:15:19;33.20;47.60
74325;DHT22;62741;51.948;7.152;2022-08-04T15:17:46;33.20;47.60
74325;DHT22;62741;51.948;7.152;2022-08-04T15:20:13;33.20;47.60
74325;DHT22;62741;51.948;7.152;2022-08-04T15:22:41;33.30;47.60
74325;DHT22;62741;51.948;7.152;2022-08-04T15:25:09;33.30;47.50
74325;DHT22;62741;51.948;7.152;2022-08-04T15:27:38;33.30;47.60
74325;DHT22;62741;51.948;7.152;2022-08-04T15:30:09;33.30;47.60
74325;DHT22;62741;51.948;7.152;2022-08-04T15:32:40;33.30;47.60
74325;DHT22;62741;51.948;7.152;2022-08-04T15:35:17;33.30;47.60
74325;DHT22;62741;51.948;7.152;2022-08-04T15:37:53;33.30;47.60
74325;DHT22;62741;51.948;7.152;2022-08-04T15:40:27;33.30;47.50
74325;DHT22;62741;51.948;7.152;2022-08-04T15:43:09;33.30;47.50
74325;DHT22;62741;51.948;7.152;2022-08-04T15:45:50;33.30;47.50
74325;DHT22;62741;51.948;7.152;2022-08-04T15:48:23;33.40;47.60
74325;DHT22;62741;51.948;7.152;2022-08-04T15:51:11;33.40;47.50
74325;DHT22;62741;51.948;7.152;2022-08-04T15:56:49;33.40;47.60
74325;DHT22;62741;51.948;7.152;2022-08-04T16:02:39;33.40;47.60
74325;DHT22;62741;51.948;7.152;2022-08-04T16:05:29;33.40;47.50
74325;DHT22;62741;51.948;7.152;2022-08-04T16:08:09;33.40;47.60
74325;DHT22;62741;51.948;7.152;2022-08-04T16:10:42;33.40;47.50
74325;DHT22;62741;51.948;7.152;2022-08-04T16:13:14;33.40;47.50
74325;DHT22;62741;51.948;7.152;2022-08-04T16:15:47;33.40;47.60
74325;DHT22;62741;51.948;7.152;2022-08-04T16:18:38;33.40;47.60
74325;DHT22;62741;51.948;7.152;2022-08-04T16:21:18;33.40;47.50
74325;DHT22;62741;51.948;7.152;2022-08-04T16:26:56;33.50;47.60
74325;DHT22;62741;51.948;7.152;2022-08-04T16:29:35;33.50;47.70
74325;DHT22;62741;51.948;7.152;2022-08-04T16:32:08;33.50;47.60
74325;DHT22;62741;51.948;7.152;2022-08-04T16:34:39;33.50;47.60
74325;DHT22;62741;51.948;7.152;2022-08-04T16:37:09;33.50;47.60
74325;DHT22;62741;51.948;7.152;2022-08-04T16:39:38;33.50;47.60
74325;DHT22;62741;51.948;7.152;2022-08-04T16:42:33;33.50;47.60
74325;DHT22;62741;51.948;7.152;2022-08-04T16:45:09;33.50;47.60
74325;DHT22;62741;51.948;7.152;2022-08-04T16:48:00;33.60;47.60
74325;DHT22;62741;51.948;7.152;2022-08-04T16:50:31;33.60;47.60
74325;DHT22;62741;51.948;7.152;2022-08-04T16:53:01;33.60;47.50
74325;DHT22;62741;51.948;7.152;2022-08-04T16:55:37;33.60;47.60
74325;DHT22;62741;51.948;7.152;2022-08-04T16:58:04;33.60;47.60
74325;DHT22;62741;51.948;7.152;2022-08-04T17:00:34;33.60;47.60
74325;DHT22;62741;51.948;7.152;2022-08-04T17:03:03;33.60;47.50
74325;DHT22;62741;51.948;7.152;2022-08-04T17:05:33;33.60;47.50
74325;DHT22;62741;51.948;7.152;2022-08-04T17:08:02;33.60;47.50
74325;DHT22;62741;51.948;7.152;2022-08-04T17:10:32;33.60;47.50
74325;DHT22;62741;51.948;7.152;2022-08-04T17:13:19;33.60;47.50
74325;DHT22;62741;51.948;7.152;2022-08-04T17:15:49;33.60;47.50
74325;DHT22;62741;51.948;7.152;2022-08-04T17:18:19;33.70;47.50
74325;DHT22;62741;51.948;7.152;2022-08-04T17:20:49;33.70;47.50
74325;DHT22;62741;51.948;7.152;2022-08-04T17:23:30;33.70;47.50
74325;DHT22;62741;51.948;7.152;2022-08-04T17:26:05;33.70;47.50
74325;DHT22;62741;51.948;7.152;2022-08-04T17:28:34;33.70;47.40
74325;DHT22;62741;51.948;7.152;2022-08-04T17:31:03;33.70;47.50
74325;DHT22;62741;51.948;7.152;2022-08-04T17:33:32;33.70;47.50
74325;DHT22;62741;51.948;7.152;2022-08-04T17:36:02;33.70;47.50
74325;DHT22;62741;51.948;7.152;2022-08-04T17:38:33;33.70;47.40
74325;DHT22;62741;51.948;7.152;2022-08-04T17:41:04;33.70;47.40
74325;DHT22;62741;51.948;7.152;2022-08-04T17:43:41;33.70;47.40
74325;DHT22;62741;51.948;7.152;2022-08-04T17:46:27;33.70;47.40
74325;DHT22;62741;51.948;7.152;2022-08-04T17:49:04;33.70;47.40
74325;DHT22;62741;51.948;7.152;2022-08-04T17:51:40;33.80;47.40
74325;DHT22;62741;51.948;7.152;2022-08-04T17:54:10;33.80;47.40
74325;DHT22;62741;51.948;7.152;2022-08-04T17:56:40;33.80;47.40
74325;DHT22;62741;51.948;7.152;2022-08-04T17:59:10;33.80;47.40
74325;DHT22;62741;51.948;7.152;2022-08-04T18:01:42;33.80;47.40
74325;DHT22;62741;51.948;7.152;2022-08-04T18:04:32;33.80;47.40
74325;DHT22;62741;51.948;7.152;2022-08-04T18:07:06;33.80;47.40
74325;DHT22;62741;51.948;7.152;2022-08-04T18:09:36;33.80;47.40
74325;DHT22;62741;51.948;7.152;2022-08-04T18:12:07;33.80;47.40
74325;DHT22;62741;51.948;7.152;2022-08-04T18:14:41;33.80;47.40
74325;DHT22;62741;51.948;7.152;2022-08-04T18:17:10;33.80;47.40
74325;DHT22;62741;51.948;7.152;2022-08-04T18:19:49;33.80;47.40
74325;DHT22;62741;51.948;7.152;2022-08-04T18:22:18;33.80;47.40
74325;DHT22;62741;51.948;7.152;2022-08-04T18:24:46;33.80;47.40
74325;DHT22;62741;51.948;7.152;2022-08-04T18:27:13;33.90;47.40
74325;DHT22;62741;51.948;7.152;2022-08-04T18:29:41;33.80;47.40
74325;DHT22;62741;51.948;7.152;2022-08-04T18:32:08;33.90;47.40
74325;DHT22;62741;51.948;7.152;2022-08-04T18:34:36;33.80;47.30
74325;DHT22;62741;51.948;7.152;2022-08-04T18:37:04;33.80;47.30
74325;DHT22;62741;51.948;7.152;2022-08-04T18:39:32;33.80;47.30
74325;DHT22;62741;51.948;7.152;2022-08-04T18:41:59;33.90;47.40
74325;DHT22;62741;51.948;7.152;2022-08-04T18:44:26;33.90;48.00
74325;DHT22;62741;51.948;7.152;2022-08-04T18:46:54;33.90;47.30
74325;DHT22;62741;51.948;7.152;2022-08-04T18:49:21;33.90;47.40
74325;DHT22;62741;51.948;7.152;2022-08-04T18:51:49;33.90;47.30
74325;DHT22;62741;51.948;7.152;2022-08-04T18:54:17;33.90;47.40
74325;DHT22;62741;51.948;7.152;2022-08-04T18:56:45;33.90;47.40
74325;DHT22;62741;51.948;7.152;2022-08-04T18:59:12;33.90;47.40
74325;DHT22;62741;51.948;7.152;2022-08-04T19:01:39;33.90;47.30
74325;DHT22;62741;51.948;7.152;2022-08-04T19:04:06;33.90;47.30
74325;DHT22;62741;51.948;7.152;2022-08-04T19:06:34;33.90;47.30
74325;DHT22;62741;51.948;7.152;2022-08-04T19:09:01;33.90;47.30
74325;DHT22;62741;51.948;7.152;2022-08-04T19:11:30;33.90;47.30
74325;DHT22;62741;51.948;7.152;2022-08-04T19:13:59;33.90;47.20
74325;DHT22;62741;51.948;7.152;2022-08-04T19:16:27;33.90;47.30
74325;DHT22;62741;51.948;7.152;2022-08-04T19:18:55;33.90;47.30
74325;DHT22;62741;51.948;7.152;2022-08-04T19:21:22;33.90;47.30
74325;DHT22;62741;51.948;7.152;2022-08-04T19:23:49;33.90;47.30
74325;DHT22;62741;51.948;7.152;2022-08-04T19:26:16;33.90;47.30
74325;DHT22;62741;51.948;7.152;2022-08-04T19:28:43;33.90;47.30
74325;DHT22;62741;51.948;7.152;2022-08-04T19:31:12;33.90;47.30
74325;DHT22;62741;51.948;7.152;2022-08-04T19:33:39;33.90;47.30
74325;DHT22;62741;51.948;7.152;2022-08-04T19:36:07;33.90;47.30
74325;DHT22;62741;51.948;7.152;2022-08-04T19:38:35;33.90;47.30
74325;DHT22;62741;51.948;7.152;2022-08-04T19:41:03;33.90;47.50
74325;DHT22;62741;51.948;7.152;2022-08-04T19:43:31;33.90;47.40
74325;DHT22;62741;51.948;7.152;2022-08-04T19:45:58;33.90;47.10
74325;DHT22;62741;51.948;7.152;2022-08-04T19:48:27;33.90;47.10
74325;DHT22;62741;51.948;7.152;2022-08-04T19:50:54;33.90;47.20
74325;DHT22;62741;51.948;7.152;2022-08-04T19:53:20;33.90;47.20
74325;DHT22;62741;51.948;7.152;2022-08-04T19:55:48;33.90;47.30
74325;DHT22;62741;51.948;7.152;2022-08-04T19:58:15;33.90;47.30
74325;DHT22;62741;51.948;7.152;2022-08-04T20:00:44;33.80;47.20
74325;DHT22;62741;51.948;7.152;2022-08-04T20:03:11;33.80;47.20
74325;DHT22;62741;51.948;7.152;2022-08-04T20:05:40;33.90;47.20
74325;DHT22;62741;51.948;7.152;2022-08-04T20:08:08;33.80;47.10
74325;DHT22;62741;51.948;7.152;2022-08-04T20:10:35;33.80;47.10
74325;DHT22;62741;51.948;7.152;2022-08-04T20:13:03;33.80;47.10
74325;DHT22;62741;51.948;7.152;2022-08-04T20:15:31;33.80;47.10
74325;DHT22;62741;51.948;7.152;2022-08-04T20:17:58;33.80;47.00
74325;DHT22;62741;51.948;7.152;2022-08-04T20:20:25;33.80;47.00
74325;DHT22;62741;51.948;7.152;2022-08-04T20:22:53;33.80;47.00
74325;DHT22;62741;51.948;7.152;2022-08-04T20:25:20;33.80;46.90
74325;DHT22;62741;51.948;7.152;2022-08-04T20:27:47;33.80;46.90
74325;DHT22;62741;51.948;7.152;2022-08-04T20:30:14;33.80;47.00
74325;DHT22;62741;51.948;7.152;2022-08-04T20:32:41;33.80;46.90
74325;DHT22;62741;51.948;7.152;2022-08-04T20:35:08;33.80;46.90
74325;DHT22;62741;51.948;7.152;2022-08-04T20:37:39;33.80;46.90
74325;DHT22;62741;51.948;7.152;2022-08-04T20:40:09;33.90;47.20
74325;DHT22;62741;51.948;7.152;2022-08-04T20:42:38;33.80;46.80
74325;DHT22;62741;51.948;7.152;2022-08-04T20:45:06;33.80;46.70
74325;DHT22;62741;51.948;7.152;2022-08-04T20:47:34;33.80;46.80
74325;DHT22;62741;51.948;7.152;2022-08-04T20:50:01;33.80;46.80
74325;DHT22;62741;51.948;7.152;2022-08-04T20:52:29;33.80;46.80
74325;DHT22;62741;51.948;7.152;2022-08-04T20:54:57;33.70;46.80
74325;DHT22;62741;51.948;7.152;2022-08-04T20:57:27;33.70;46.60
74325;DHT22;62741;51.948;7.152;2022-08-04T20:59:54;33.70;46.60
74325;DHT22;62741;51.948;7.152;2022-08-04T21:02:21;33.70;46.70
74325;DHT22;62741;51.948;7.152;2022-08-04T21:04:49;33.70;46.80
74325;DHT22;62741;51.948;7.152;2022-08-04T21:07:16;33.70;46.90
74325;DHT22;62741;51.948;7.152;2022-08-04T21:09:44;33.70;46.80
74325;DHT22;62741;51.948;7.152;2022-08-04T21:12:13;33.70;46.80
74325;DHT22;62741;51.948;7.152;2022-08-04T21:14:43;33.70;46.70
74325;DHT22;62741;51.948;7.152;2022-08-04T21:17:10;33.70;46.70
74325;DHT22;62741;51.948;7.152;2022-08-04T21:19:38;33.70;46.60
74325;DHT22;62741;51.948;7.152;2022-08-04T21:22:06;33.70;46.60
74325;DHT22;62741;51.948;7.152;2022-08-04T21:24:33;33.70;46.70
74325;DHT22;62741;51.948;7.152;2022-08-04T21:27:01;33.70;46.80
74325;DHT22;62741;51.948;7.152;2022-08-04T21:29:30;33.70;46.80
74325;DHT22;62741;51.948;7.152;2022-08-04T21:32:00;33.70;46.90
74325;DHT22;62741;51.948;7.152;2022-08-04T21:34:30;33.70;46.80
74325;DHT22;62741;51.948;7.152;2022-08-04T21:36:57;33.70;46.70
74325;DHT22;62741;51.948;7.152;2022-08-04T21:39:24;33.60;46.60
74325;DHT22;62741;51.948;7.152;2022-08-04T21:41:51;33.60;46.60
74325;DHT22;62741;51.948;7.152;2022-08-04T21:44:18;33.60;46.70
74325;DHT22;62741;51.948;7.152;2022-08-04T21:46:45;33.60;46.70
74325;DHT22;62741;51.948;7.152;2022-08-04T21:49:13;33.60;46.70
74325;DHT22;62741;51.948;7.152;2022-08-04T21:51:40;33.60;46.70
74325;DHT22;62741;51.948;7.152;2022-08-04T21:54:08;33.60;46.70
74325;DHT22;62741;51.948;7.152;2022-08-04T21:56:36;33.60;46.70
74325;DHT22;62741;51.948;7.152;2022-08-04T21:59:03;33.60;46.70
74325;DHT22;62741;51.948;7.152;2022-08-04T22:01:32;33.60;46.60
74325;DHT22;62741;51.948;7.152;2022-08-04T22:03:59;33.60;46.70
74325;DHT22;62741;51.948;7.152;2022-08-04T22:06:27;33.60;46.70
74325;DHT22;62741;51.948;7.152;2022-08-04T22:08:56;33.60;46.70
74325;DHT22;62741;51.948;7.152;2022-08-04T22:11:25;33.50;46.70
74325;DHT22;62741;51.948;7.152;2022-08-04T22:13:55;33.50;46.70
74325;DHT22;62741;51.948;7.152;2022-08-04T22:16:23;33.50;46.70
74325;DHT22;62741;51.948;7.152;2022-08-04T22:18:51;33.50;46.60
74325;DHT22;62741;51.948;7.152;2022-08-04T22:21:18;33.50;46.60
74325;DHT22;62741;51.948;7.152;2022-08-04T22:23:47;33.50;46.70
74325;DHT22;62741;51.948;7.152;2022-08-04T22:26:15;33.50;46.60
74325;DHT22;62741;51.948;7.152;2022-08-04T22:28:42;33.50;46.70
74325;DHT22;62741;51.948;7.152;2022-08-04T22:31:10;33.50;46.60
74325;DHT22;62741;51.948;7.152;2022-08-04T22:33:39;33.50;46.60
74325;DHT22;62741;51.948;7.152;2022-08-04T22:36:07;33.40;46.60
74325;DHT22;62741;51.948;7.152;2022-08-04T22:38:35;33.40;46.60
74325;DHT22;62741;51.948;7.152;2022-08-04T22:41:05;33.40;46.70
74325;DHT22;62741;51.948;7.152;2022-08-04T22:43:34;33.50;46.70
74325;DHT22;62741;51.948;7.152;2022-08-04T22:46:04;33.40;46.70
74325;DHT22;62741;51.948;7.152;2022-08-04T22:48:33;33.40;46.50
74325;DHT22;62741;51.948;7.152;2022-08-04T22:51:02;33.40;46.50
74325;DHT22;62741;51.948;7.152;2022-08-04T22:53:31;33.40;46.50
74325;DHT22;62741;51.948;7.152;2022-08-04T22:56:03;33.40;46.50
74325;DHT22;62741;51.948;7.152;2022-08-04T22:58:30;33.40;46.40
74325;DHT22;62741;51.948;7.152;2022-08-04T23:00:58;33.40;46.40
74325;DHT22;62741;51.948;7.152;2022-08-04T23:03:25;33.40;46.50
74325;DHT22;62741;51.948;7.152;2022-08-04T23:05:52;33.30;46.50
74325;DHT22;62741;51.948;7.152;2022-08-04T23:08:19;33.40;46.60
74325;DHT22;62741;51.948;7.152;2022-08-04T23:10:45;33.30;46.50
74325;DHT22;62741;51.948;7.152;2022-08-04T23:13:14;33.30;46.50
74325;DHT22;62741;51.948;7.152;2022-08-04T23:15:41;33.40;46.50
74325;DHT22;62741;51.948;7.152;2022-08-04T23:18:07;33.30;46.50
74325;DHT22;62741;51.948;7.152;2022-08-04T23:20:35;33.30;46.60
74325;DHT22;62741;51.948;7.152;2022-08-04T23:23:02;33.30;46.60
74325;DHT22;62741;51.948;7.152;2022-08-04T23:25:30;33.40;46.80
74325;DHT22;62741;51.948;7.152;2022-08-04T23:27:57;33.40;46.60
74325;DHT22;62741;51.948;7.152;2022-08-04T23:30:25;33.30;46.50
74325;DHT22;62741;51.948;7.152;2022-08-04T23:32:52;33.30;46.60
74325;DHT22;62741;51.948;7.152;2022-08-04T23:35:19;33.30;46.60
74325;DHT22;62741;51.948;7.152;2022-08-04T23:37:46;33.20;46.60
74325;DHT22;62741;51.948;7.152;2022-08-04T23:40:13;33.20;46.60
74325;DHT22;62741;51.948;7.152;2022-08-04T23:42:40;33.20;46.60
74325;DHT22;62741;51.948;7.152;2022-08-04T23:45:08;33.20;46.70
74325;DHT22;62741;51.948;7.152;2022-08-04T23:47:36;33.20;46.70
74325;DHT22;62741;51.948;7.152;2022-08-04T23:50:03;33.20;46.70
74325;DHT22;62741;51.948;7.152;2022-08-04T23:52:31;33.20;46.70
74325;DHT22;62741;51.948;7.152;2022-08-04T23:54:58;33.20;46.70
74325;DHT22;62741;51.948;7.152;2022-08-04T23:57:25;33.10;46.60
74325;DHT22;62741;51.948;7.152;2022-08-04T23:59:53;33.20;46.70
